Time;durP1;ratioP1;P1;durP2;ratioP2;P2;SDS_P1;SDS_P2;PMS_P1;PMS_P2;Temp;Humidity;BMP_temperature;BMP_pressure;BME280_temperature;BME280_humidity;BME280_pressure;Samples;Min_cycle;Max_cycle;Signal;HPM_P1;HPM_P2
2023/10/24 00:01:06;;;;;;;5.17;3.67;;;11.70;99.90;;;;;;5083268;28;20633;-73
2023/10/24 00:03:33;;;;;;;6.73;3.70;;;11.60;99.90;;;;;;5085987;28;20768;-73
2023/10/24 00:05:59;;;;;;;4.10;3.67;;;11.60;99.90;;;;;;5084840;28;20640;-73
2023/10/24 00:08:26;;;;;;;3.53;3.20;;;11.70;99.90;;;;;;5083439;28;20640;-73
2023/10/24 00:10:59;;;;;;;4.50;4.10;;;11.70;99.90;;;;;;5097089;28;20640;-73
2023/10/24 00:13:27;;;;;;;4.43;3.40;;;11.70;99.90;;;;;;5084818;28;20823;-73
2023/10/24 00:15:54;;;;;;;3.73;3.43;;;11.70;99.90;;;;;;5089646;28;20629;-73
2023/10/24 00:18:21;;;;;;;5.00;4.57;;;11.70;99.90;;;;;;5084094;28;20629;-73
2023/10/24 00:20:48;;;;;;;4.93;4.43;;;11.70;99.90;;;;;;5086067;28;21251;-73
2023/10/24 00:23:15;;;;;;;5.00;3.67;;;11.70;99.90;;;;;;5085968;28;20643;-73
2023/10/24 00:25:42;;;;;;;4.60;4.20;;;11.70;99.90;;;;;;5085112;28;20652;-72
2023/10/24 00:28:08;;;;;;;4.40;4.00;;;11.70;99.90;;;;;;5085051;28;20637;-73
2023/10/24 00:30:37;;;;;;;3.67;3.27;;;11.60;99.90;;;;;;5093465;28;20634;-72
2023/10/24 00:33:04;;;;;;;4.20;3.80;;;11.60;99.90;;;;;;5086182;28;20699;-72
2023/10/24 00:35:31;;;;;;;4.53;4.10;;;11.70;99.90;;;;;;5086243;28;20987;-73
2023/10/24 00:37:57;;;;;;;3.63;3.33;;;11.60;99.90;;;;;;5085342;28;21002;-73
2023/10/24 00:40:24;;;;;;;5.37;4.80;;;11.60;99.90;;;;;;5085341;28;20629;-73
2023/10/24 00:42:52;;;;;;;4.33;4.03;;;11.70;99.90;;;;;;5085296;28;20637;-73
2023/10/24 00:45:19;;;;;;;5.13;4.63;;;11.70;99.90;;;;;;5083040;28;20994;-73
2023/10/24 00:47:47;;;;;;;4.03;3.63;;;11.70;99.90;;;;;;5085755;28;20652;-73
2023/10/24 00:50:14;;;;;;;4.57;4.07;;;11.70;99.90;;;;;;5087749;28;20632;-74
2023/10/24 00:52:43;;;;;;;4.00;3.70;;;11.70;99.90;;;;;;5084796;28;20669;-74
2023/10/24 00:55:11;;;;;;;5.37;4.50;;;11.70;99.90;;;;;;5088409;28;20633;-74
2023/10/24 00:57:38;;;;;;;4.50;4.10;;;11.80;99.90;;;;;;5084954;28;21216;-74
2023/10/24 01:00:06;;;;;;;5.47;4.80;;;11.70;99.90;;;;;;5089733;28;20622;-74
2023/10/24 01:02:33;;;;;;;6.20;4.63;;;11.70;99.90;;;;;;5088611;28;20637;-73
2023/10/24 01:05:03;;;;;;;4.40;4.00;;;11.70;99.90;;;;;;5095245;28;21067;-73
2023/10/24 01:07:30;;;;;;;4.53;4.13;;;11.70;99.90;;;;;;5087245;28;21039;-73
2023/10/24 01:09:58;;;;;;;4.57;4.17;;;11.70;99.90;;;;;;5091429;28;20637;-74
2023/10/24 01:12:26;;;;;;;5.37;4.87;;;11.70;99.90;;;;;;5092456;28;20692;-73
2023/10/24 01:14:55;;;;;;;4.27;3.97;;;11.70;99.90;;;;;;5096951;28;20669;-73
2023/10/24 01:17:25;;;;;;;4.37;3.90;;;11.60;99.90;;;;;;5087669;28;20652;-73
2023/10/24 01:19:53;;;;;;;4.30;3.80;;;11.70;99.90;;;;;;5088144;28;20668;-74
2023/10/24 01:22:22;;;;;;;4.57;4.17;;;11.70;99.90;;;;;;5089150;28;20701;-74
2023/10/24 01:24:52;;;;;;;5.30;4.80;;;11.70;99.90;;;;;;5089651;28;20632;-74
2023/10/24 01:27:21;;;;;;;4.10;3.67;;;11.70;99.90;;;;;;5096164;28;20740;-74
2023/10/24 01:29:49;;;;;;;5.70;4.30;;;11.70;99.90;;;;;;5089772;28;20690;-74
2023/10/24 01:32:18;;;;;;;5.37;4.20;;;11.80;99.90;;;;;;5089685;28;21014;-73
2023/10/24 01:34:46;;;;;;;5.30;4.90;;;11.80;99.90;;;;;;5088883;28;20628;-74
2023/10/24 01:37:14;;;;;;;5.40;4.20;;;11.70;99.90;;;;;;5089004;28;20683;-73
2023/10/24 01:39:43;;;;;;;5.60;4.93;;;11.70;99.90;;;;;;5089423;28;20661;-73
2023/10/24 01:42:11;;;;;;;3.90;3.60;;;11.70;99.90;;;;;;5089486;28;20698;-73
2023/10/24 01:44:39;;;;;;;4.80;3.53;;;11.70;99.90;;;;;;5089176;28;21053;-74
2023/10/24 01:47:09;;;;;;;5.43;4.30;;;11.80;99.90;;;;;;5086604;28;20621;-73
2023/10/24 01:49:36;;;;;;;4.50;3.97;;;11.70;99.90;;;;;;5091577;28;20613;-73
2023/10/24 01:52:04;;;;;;;4.13;3.80;;;11.80;99.90;;;;;;5091724;28;20720;-73
2023/10/24 01:54:32;;;;;;;10.23;3.23;;;11.80;99.90;;;;;;5088632;28;20694;-73
2023/10/24 01:57:02;;;;;;;4.60;4.20;;;11.70;99.90;;;;;;5091466;28;20664;-73
2023/10/24 01:59:28;;;;;;;3.67;3.37;;;11.70;99.90;;;;;;5088668;28;21026;-73
2023/10/24 02:01:55;;;;;;;4.57;4.17;;;11.70;99.90;;;;;;5089245;28;20696;-73
2023/10/24 02:04:22;;;;;;;5.17;4.40;;;11.70;99.90;;;;;;5091551;28;20656;-73
2023/10/24 02:06:49;;;;;;;4.70;4.33;;;11.70;99.90;;;;;;5088156;28;20663;-73
2023/10/24 02:09:16;;;;;;;4.50;3.87;;;11.80;99.90;;;;;;5088201;28;20660;-73
2023/10/24 02:11:42;;;;;;;4.20;3.80;;;11.70;99.90;;;;;;5093225;28;20621;-73
2023/10/24 02:14:12;;;;;;;4.90;3.50;;;11.70;99.90;;;;;;5093215;28;20671;-73
2023/10/24 02:16:39;;;;;;;3.80;3.50;;;11.80;99.90;;;;;;5099401;28;20636;-73
2023/10/24 02:19:06;;;;;;;7.70;4.20;;;11.70;99.90;;;;;;5095041;28;20629;-73
2023/10/24 02:21:34;;;;;;;4.23;3.63;;;11.80;99.90;;;;;;5093295;28;20633;-73
2023/10/24 02:24:02;;;;;;;3.80;3.50;;;11.70;99.90;;;;;;5088012;28;20870;-73
2023/10/24 02:26:31;;;;;;;4.17;3.80;;;11.70;99.90;;;;;;5096056;28;21262;-73
2023/10/24 02:28:59;;;;;;;3.50;3.20;;;11.80;99.90;;;;;;5087986;28;20656;-73
2023/10/24 02:31:29;;;;;;;4.63;3.70;;;11.80;99.90;;;;;;5088199;28;20639;-73
2023/10/24 02:33:56;;;;;;;4.60;3.80;;;11.80;99.90;;;;;;5087037;28;20680;-73
2023/10/24 02:36:25;;;;;;;4.23;3.70;;;11.80;99.90;;;;;;5087599;28;20640;-73
2023/10/24 02:38:52;;;;;;;3.70;3.40;;;11.80;99.90;;;;;;5087913;28;20654;-73
2023/10/24 02:41:20;;;;;;;4.10;3.80;;;11.80;99.90;;;;;;5087567;28;20632;-73
2023/10/24 02:43:48;;;;;;;4.40;3.93;;;11.80;99.90;;;;;;5087970;28;21231;-73
2023/10/24 02:46:15;;;;;;;3.63;3.20;;;11.70;99.90;;;;;;5088414;28;20706;-73
2023/10/24 02:48:45;;;;;;;3.83;3.53;;;11.70;99.90;;;;;;5087951;28;21063;-72
2023/10/24 02:51:14;;;;;;;3.33;3.13;;;11.80;99.90;;;;;;5091208;28;20635;-72
2023/10/24 02:53:46;;;;;;;4.83;3.87;;;11.70;99.90;;;;;;5087226;28;20664;-72
2023/10/24 02:56:14;;;;;;;3.60;3.30;;;11.70;99.90;;;;;;5087510;28;20655;-72
2023/10/24 02:58:42;;;;;;;3.57;3.27;;;11.70;99.90;;;;;;5087452;28;20960;-72
2023/10/24 03:01:09;;;;;;;4.53;3.43;;;11.80;99.90;;;;;;5087865;28;20632;-72
2023/10/24 03:03:36;;;;;;;3.43;3.13;;;11.70;99.90;;;;;;5083901;28;20644;-72
2023/10/24 03:06:14;;;;;;;3.67;3.37;;;11.70;99.90;;;;;;5087532;28;20684;-72
2023/10/24 03:08:40;;;;;;;4.40;3.60;;;11.80;99.90;;;;;;5088738;28;20636;-72
2023/10/24 03:11:07;;;;;;;4.20;3.60;;;11.80;99.90;;;;;;5093193;28;20713;-72
2023/10/24 03:13:34;;;;;;;3.60;3.30;;;11.60;99.90;;;;;;5087336;28;20712;-73
2023/10/24 03:16:03;;;;;;;3.40;3.10;;;11.60;99.90;;;;;;5087150;28;20625;-73
2023/10/24 03:18:31;;;;;;;3.20;2.87;;;11.60;99.90;;;;;;5093103;28;20620;-73
2023/10/24 03:20:58;;;;;;;2.80;2.60;;;11.70;99.90;;;;;;5090926;28;20633;-73
2023/10/24 03:23:26;;;;;;;3.77;3.37;;;11.80;99.90;;;;;;5091874;28;20636;-73
2023/10/24 03:25:53;;;;;;;4.10;3.10;;;11.70;99.90;;;;;;5087076;28;20625;-73
2023/10/24 03:28:20;;;;;;;3.87;3.47;;;11.70;99.90;;;;;;5086261;28;20629;-73
2023/10/24 03:30:48;;;;;;;3.60;3.17;;;11.70;99.90;;;;;;5085996;28;21109;-73
2023/10/24 03:33:15;;;;;;;3.27;2.87;;;11.70;99.90;;;;;;5086705;28;20665;-72
2023/10/24 03:35:41;;;;;;;4.33;3.80;;;11.70;99.90;;;;;;5086786;28;20728;-72
2023/10/24 03:38:08;;;;;;;4.13;3.50;;;11.70;99.90;;;;;;5086585;28;20631;-73
2023/10/24 03:40:39;;;;;;;4.17;3.87;;;11.70;99.90;;;;;;5086292;28;20630;-73
2023/10/24 03:43:06;;;;;;;5.30;3.43;;;11.70;99.90;;;;;;5087860;28;20633;-73
2023/10/24 03:45:33;;;;;;;3.57;3.27;;;11.70;99.90;;;;;;5086848;28;20627;-73
2023/10/24 03:48:00;;;;;;;3.07;2.80;;;11.70;99.90;;;;;;5085791;28;20628;-73
2023/10/24 03:50:26;;;;;;;3.90;3.60;;;11.70;99.90;;;;;;5088832;28;20629;-73
2023/10/24 03:52:53;;;;;;;3.30;3.00;;;11.70;99.90;;;;;;5086811;28;20631;-73
2023/10/24 03:55:20;;;;;;;3.13;2.83;;;11.70;99.90;;;;;;5086248;28;20671;-73
2023/10/24 03:57:48;;;;;;;7.10;3.60;;;11.70;99.90;;;;;;5086071;28;20639;-73
2023/10/24 04:00:15;;;;;;;3.40;2.80;;;11.70;99.90;;;;;;5088720;28;20613;-74
2023/10/24 04:02:42;;;;;;;4.40;3.50;;;11.80;99.90;;;;;;5086066;28;20625;-73
2023/10/24 04:05:10;;;;;;;3.07;2.53;;;11.80;99.90;;;;;;5086025;28;20663;-73
2023/10/24 04:07:37;;;;;;;3.50;3.20;;;11.80;99.90;;;;;;5086410;28;20736;-72
2023/10/24 04:10:04;;;;;;;3.50;3.20;;;11.90;99.90;;;;;;5086660;28;21164;-73
2023/10/24 04:12:31;;;;;;;2.83;2.60;;;11.90;99.90;;;;;;5086379;28;20623;-73
2023/10/24 04:14:59;;;;;;;3.60;3.30;;;11.80;99.90;;;;;;5085603;28;20681;-72
2023/10/24 04:17:26;;;;;;;5.20;3.20;;;11.80;99.90;;;;;;5084416;28;20636;-72
2023/10/24 04:19:53;;;;;;;3.90;3.27;;;11.70;99.90;;;;;;5087346;28;20751;-72
2023/10/24 04:22:20;;;;;;;3.50;3.20;;;11.70;99.90;;;;;;5085396;28;20643;-73
2023/10/24 04:24:47;;;;;;;4.07;3.70;;;11.70;99.90;;;;;;5085120;28;21250;-73
2023/10/24 04:27:14;;;;;;;5.10;3.77;;;11.60;99.90;;;;;;5085710;28;20627;-73
2023/10/24 04:29:42;;;;;;;4.47;4.00;;;11.70;99.90;;;;;;5084622;28;20617;-73
2023/10/24 04:32:10;;;;;;;3.90;3.60;;;11.80;99.90;;;;;;5085751;28;21236;-73
2023/10/24 04:34:36;;;;;;;4.87;4.27;;;11.70;99.90;;;;;;5089191;28;20764;-73
2023/10/24 04:37:04;;;;;;;5.43;4.93;;;11.60;99.90;;;;;;5085745;28;21166;-73
2023/10/24 04:39:31;;;;;;;5.90;5.30;;;11.70;99.90;;;;;;5085442;28;21243;-73
2023/10/24 04:41:58;;;;;;;5.40;3.80;;;11.70;99.90;;;;;;5085741;28;20621;-73
2023/10/24 04:44:24;;;;;;;4.87;4.37;;;11.60;99.90;;;;;;5084856;28;21012;-73
2023/10/24 04:46:51;;;;;;;6.07;4.53;;;11.60;99.90;;;;;;5085018;28;20736;-73
2023/10/24 04:49:19;;;;;;;4.07;3.67;;;11.60;99.90;;;;;;5097340;28;20697;-73
2023/10/24 04:51:47;;;;;;;4.10;3.73;;;11.60;99.90;;;;;;5093828;28;20627;-73
2023/10/24 04:54:13;;;;;;;3.83;3.43;;;11.70;99.90;;;;;;5091516;28;20704;-73
2023/10/24 04:56:40;;;;;;;5.30;3.83;;;11.60;99.90;;;;;;5084279;28;20659;-73
2023/10/24 04:59:07;;;;;;;5.23;3.40;;;11.50;99.90;;;;;;5086317;28;20818;-70
2023/10/24 05:01:37;;;;;;;3.50;3.20;;;11.50;99.90;;;;;;5085740;28;20627;-70
2023/10/24 05:04:04;;;;;;;3.83;3.53;;;11.40;99.90;;;;;;5087528;28;20661;-70
2023/10/24 05:06:33;;;;;;;4.40;3.70;;;11.30;99.90;;;;;;5089575;28;20629;-70
2023/10/24 05:09:00;;;;;;;3.70;3.40;;;11.20;99.90;;;;;;5087431;28;20613;-70
2023/10/24 05:11:26;;;;;;;4.43;3.50;;;11.20;99.90;;;;;;5089756;28;20636;-70
2023/10/24 05:13:53;;;;;;;6.77;3.70;;;11.20;99.90;;;;;;5092218;28;20775;-70
2023/10/24 05:16:20;;;;;;;3.97;3.67;;;11.30;99.90;;;;;;5089702;28;20617;-71
2023/10/24 05:18:47;;;;;;;3.40;3.10;;;11.20;99.90;;;;;;5088662;28;20625;-71
2023/10/24 05:21:14;;;;;;;4.37;3.93;;;11.20;99.90;;;;;;5085526;28;21026;-71
2023/10/24 05:23:42;;;;;;;4.57;4.17;;;11.20;99.90;;;;;;5085444;28;21244;-72
2023/10/24 05:26:09;;;;;;;5.60;4.00;;;11.30;99.90;;;;;;5081528;28;20628;-72
2023/10/24 05:28:36;;;;;;;3.77;3.40;;;11.40;99.90;;;;;;5089785;28;20644;-72
2023/10/24 05:31:07;;;;;;;5.17;4.27;;;11.40;99.90;;;;;;5098020;28;20628;-72
2023/10/24 05:33:34;;;;;;;5.07;4.20;;;11.40;99.90;;;;;;5097872;28;20965;-71
2023/10/24 05:36:01;;;;;;;4.10;3.70;;;11.30;99.90;;;;;;5096609;28;20623;-72
2023/10/24 05:38:27;;;;;;;3.40;3.10;;;11.20;99.90;;;;;;5084364;28;20733;-72
2023/10/24 05:40:55;;;;;;;4.27;3.50;;;11.10;99.90;;;;;;5085490;28;20716;-72
2023/10/24 05:43:22;;;;;;;5.03;3.23;;;11.10;99.90;;;;;;5085267;28;20625;-72
2023/10/24 05:45:49;;;;;;;4.80;4.30;;;11.10;99.90;;;;;;5091581;28;20646;-72
2023/10/24 05:48:16;;;;;;;4.83;3.70;;;11.20;99.90;;;;;;5090877;28;20633;-72
2023/10/24 05:50:44;;;;;;;3.80;3.47;;;11.30;99.90;;;;;;5091211;28;20636;-73
2023/10/24 05:53:11;;;;;;;4.90;3.83;;;11.30;99.90;;;;;;5081383;28;20620;-72
2023/10/24 05:55:39;;;;;;;4.43;4.03;;;11.40;99.90;;;;;;5088609;28;20672;-72
2023/10/24 05:58:07;;;;;;;4.93;4.17;;;11.50;99.90;;;;;;5088569;28;20670;-72
2023/10/24 06:00:34;;;;;;;5.10;4.57;;;11.50;99.90;;;;;;5089499;28;20628;-72
2023/10/24 06:03:01;;;;;;;4.80;4.10;;;11.50;99.90;;;;;;5088532;28;20628;-72
2023/10/24 06:05:28;;;;;;;5.27;4.77;;;11.50;99.90;;;;;;5088795;28;20620;-72
2023/10/24 06:07:54;;;;;;;3.87;3.50;;;11.50;99.90;;;;;;5088262;28;20736;-70
2023/10/24 06:10:21;;;;;;;4.40;4.00;;;11.50;99.90;;;;;;5085791;28;20621;-72
2023/10/24 06:12:48;;;;;;;4.17;3.67;;;11.50;99.90;;;;;;5093849;28;20725;-72
2023/10/24 06:15:16;;;;;;;4.63;4.23;;;11.50;99.90;;;;;;5089242;28;20686;-72
2023/10/24 06:17:43;;;;;;;6.30;4.57;;;11.60;99.90;;;;;;5089962;28;20632;-72
2023/10/24 06:20:10;;;;;;;6.17;4.87;;;11.60;99.90;;;;;;5087120;28;20621;-72
2023/10/24 06:22:37;;;;;;;6.50;4.33;;;11.60;99.90;;;;;;5095478;28;21203;-72
2023/10/24 06:25:04;;;;;;;5.07;4.20;;;11.60;99.90;;;;;;5088216;28;20951;-72
2023/10/24 06:27:31;;;;;;;4.80;4.37;;;11.60;99.90;;;;;;5091911;28;20628;-72
2023/10/24 06:29:58;;;;;;;4.43;4.03;;;11.60;99.90;;;;;;5089375;28;20635;-72
2023/10/24 06:32:26;;;;;;;4.13;3.80;;;11.60;99.90;;;;;;5088679;28;20636;-72
2023/10/24 06:34:53;;;;;;;4.07;3.77;;;11.60;99.90;;;;;;5087668;28;20665;-72
2023/10/24 06:37:20;;;;;;;5.07;4.57;;;11.60;99.90;;;;;;5088216;28;20625;-72
2023/10/24 06:39:47;;;;;;;4.97;4.40;;;11.60;99.90;;;;;;5092331;28;20635;-71
2023/10/24 06:42:13;;;;;;;5.53;3.73;;;11.60;99.90;;;;;;5091118;28;20724;-72
2023/10/24 06:44:40;;;;;;;4.67;4.20;;;11.60;99.90;;;;;;5087610;28;20630;-71
2023/10/24 06:47:07;;;;;;;5.20;4.70;;;11.60;99.90;;;;;;5098620;28;20620;-72
2023/10/24 06:49:35;;;;;;;4.40;4.00;;;11.50;99.90;;;;;;5091783;28;20620;-71
2023/10/24 06:52:02;;;;;;;3.40;3.00;;;11.50;99.90;;;;;;5086429;28;20644;-71
2023/10/24 06:54:29;;;;;;;5.17;4.77;;;11.50;99.90;;;;;;5091440;28;20655;-71
2023/10/24 06:56:56;;;;;;;4.23;3.83;;;11.50;99.90;;;;;;5085045;28;20633;-73
2023/10/24 06:59:23;;;;;;;5.77;4.60;;;11.50;99.90;;;;;;5086155;28;20682;-72
2023/10/24 07:01:50;;;;;;;5.50;4.47;;;11.50;99.90;;;;;;5086375;28;21116;-72
2023/10/24 07:04:17;;;;;;;4.13;3.27;;;11.50;99.90;;;;;;5082490;28;21045;-72
2023/10/24 07:06:45;;;;;;;5.43;4.93;;;11.50;99.90;;;;;;5087876;28;21042;-72
2023/10/24 07:09:12;;;;;;;4.67;4.10;;;11.60;99.90;;;;;;5086382;28;20631;-72
2023/10/24 07:11:39;;;;;;;4.80;4.30;;;11.50;99.90;;;;;;5088561;28;20684;-72
2023/10/24 07:14:06;;;;;;;4.90;4.30;;;11.60;99.90;;;;;;5086257;28;20687;-72
2023/10/24 07:16:33;;;;;;;5.73;4.53;;;11.60;99.90;;;;;;5091286;28;20639;-72
2023/10/24 07:18:59;;;;;;;6.80;5.23;;;11.60;99.90;;;;;;5092076;28;20629;-71
2023/10/24 07:21:26;;;;;;;6.47;5.20;;;11.60;99.90;;;;;;5093799;28;21146;-71
2023/10/24 07:23:56;;;;;;;5.70;5.10;;;11.70;99.90;;;;;;5088037;28;20632;-71
2023/10/24 07:26:23;;;;;;;7.23;4.90;;;11.70;99.90;;;;;;5086478;28;20637;-72
2023/10/24 07:28:49;;;;;;;6.07;5.47;;;11.70;99.90;;;;;;5089751;28;20751;-72
2023/10/24 07:31:16;;;;;;;5.37;4.87;;;11.70;99.90;;;;;;5091423;28;20715;-72
2023/10/24 07:33:43;;;;;;;6.63;4.60;;;11.70;99.90;;;;;;5093428;28;21001;-72
2023/10/24 07:36:10;;;;;;;4.63;4.23;;;11.70;99.90;;;;;;5081530;28;20667;-72
2023/10/24 07:38:37;;;;;;;4.93;4.53;;;11.70;99.90;;;;;;5085898;28;20765;-72
2023/10/24 07:41:05;;;;;;;5.13;4.33;;;11.60;99.90;;;;;;5085304;28;20632;-72
2023/10/24 07:43:32;;;;;;;5.97;5.17;;;11.60;99.90;;;;;;5085955;28;21165;-72
2023/10/24 07:45:58;;;;;;;6.40;5.40;;;11.60;99.90;;;;;;5087025;28;20660;-72
2023/10/24 07:48:26;;;;;;;5.43;5.03;;;11.60;99.90;;;;;;5086112;28;20970;-72
2023/10/24 07:50:53;;;;;;;4.80;4.40;;;11.60;99.90;;;;;;5091254;28;21461;-72
2023/10/24 07:53:20;;;;;;;5.20;4.80;;;11.60;99.90;;;;;;5086616;28;20633;-72
2023/10/24 07:55:47;;;;;;;5.33;3.70;;;11.70;99.90;;;;;;5085644;28;20684;-72
2023/10/24 07:58:17;;;;;;;5.73;5.20;;;11.60;99.90;;;;;;5089200;28;20624;-72
2023/10/24 08:00:44;;;;;;;8.70;5.93;;;11.60;99.90;;;;;;5089074;28;20622;-72
2023/10/24 08:03:11;;;;;;;6.50;5.63;;;11.70;99.90;;;;;;5086980;28;20629;-72
2023/10/24 08:05:38;;;;;;;6.23;5.50;;;11.60;99.90;;;;;;5087109;28;20625;-72
2023/10/24 08:08:06;;;;;;;6.87;5.47;;;11.60;99.90;;;;;;5087151;28;21157;-72
2023/10/24 08:10:33;;;;;;;6.07;5.13;;;11.60;99.90;;;;;;5088051;28;20661;-71
2023/10/24 08:13:00;;;;;;;7.30;6.27;;;11.60;99.90;;;;;;5089606;28;20655;-71
2023/10/24 08:15:29;;;;;;;6.53;5.93;;;11.70;99.90;;;;;;5087504;28;20667;-71
2023/10/24 08:17:56;;;;;;;10.73;6.70;;;11.70;99.90;;;;;;5089637;28;20622;-71
2023/10/24 08:20:23;;;;;;;7.43;6.10;;;11.70;99.90;;;;;;5092346;28;20719;-71
2023/10/24 08:22:51;;;;;;;6.10;5.20;;;11.70;99.90;;;;;;5085168;28;20639;-71
2023/10/24 08:25:18;;;;;;;7.50;6.20;;;11.70;99.90;;;;;;5086012;28;20637;-71
2023/10/24 08:27:45;;;;;;;9.70;5.30;;;11.70;99.90;;;;;;5089466;28;20982;-71
2023/10/24 08:30:12;;;;;;;5.37;4.87;;;11.70;99.90;;;;;;5097840;28;20621;-71
2023/10/24 08:32:41;;;;;;;6.80;4.37;;;11.60;99.90;;;;;;5088105;28;20636;-71
2023/10/24 08:35:09;;;;;;;5.57;4.93;;;11.70;99.90;;;;;;5092334;28;20660;-72
2023/10/24 08:37:36;;;;;;;4.33;3.93;;;11.70;99.90;;;;;;5085918;28;21211;-72
2023/10/24 08:40:03;;;;;;;4.20;3.90;;;11.70;99.90;;;;;;5086138;28;20965;-71
2023/10/24 08:42:30;;;;;;;5.23;4.80;;;11.70;99.90;;;;;;5092415;28;20991;-72
2023/10/24 08:44:58;;;;;;;5.23;4.73;;;11.80;99.90;;;;;;5100202;28;21204;-71
2023/10/24 08:47:26;;;;;;;6.47;4.33;;;11.80;99.90;;;;;;5095588;28;20715;-72
2023/10/24 08:49:55;;;;;;;4.30;3.90;;;11.80;99.90;;;;;;5092814;28;20641;-72
2023/10/24 08:52:22;;;;;;;8.87;4.00;;;11.80;99.90;;;;;;5085464;28;20614;-71
2023/10/24 08:54:51;;;;;;;7.23;3.53;;;11.90;99.90;;;;;;5094493;28;20656;-72
2023/10/24 08:57:23;;;;;;;6.47;4.77;;;11.90;99.90;;;;;;5090246;28;21145;-72
2023/10/24 08:59:51;;;;;;;5.10;4.70;;;11.90;99.90;;;;;;5094535;28;20624;-71
2023/10/24 09:02:18;;;;;;;3.80;3.50;;;11.90;99.90;;;;;;5087143;28;20637;-72
2023/10/24 09:04:45;;;;;;;3.40;3.10;;;12.00;99.90;;;;;;5085517;28;21280;-72
2023/10/24 09:07:14;;;;;;;12.60;4.47;;;12.00;99.90;;;;;;5085747;28;21056;-72
2023/10/24 09:09:40;;;;;;;5.57;4.50;;;12.00;99.90;;;;;;5085675;28;20644;-72
2023/10/24 09:12:11;;;;;;;4.90;3.67;;;12.10;99.90;;;;;;5085334;28;20621;-72
2023/10/24 09:14:37;;;;;;;4.10;3.70;;;12.10;99.90;;;;;;5085646;28;20648;-72
2023/10/24 09:17:04;;;;;;;4.67;3.30;;;12.10;99.90;;;;;;5086506;28;20723;-72
2023/10/24 09:19:31;;;;;;;4.33;3.90;;;12.10;99.90;;;;;;5090564;28;20623;-71
2023/10/24 09:21:58;;;;;;;7.90;5.10;;;12.10;99.90;;;;;;5085486;28;21189;-72
2023/10/24 09:24:26;;;;;;;5.30;3.87;;;12.20;99.90;;;;;;5085145;28;20945;-71
2023/10/24 09:26:54;;;;;;;4.20;3.90;;;12.20;99.90;;;;;;5089733;28;20637;-71
2023/10/24 09:29:21;;;;;;;3.60;3.30;;;12.20;99.90;;;;;;5091705;28;20996;-72
2023/10/24 09:31:49;;;;;;;3.97;3.67;;;12.20;99.90;;;;;;5093975;28;20995;-72
2023/10/24 09:34:17;;;;;;;6.53;3.57;;;12.30;99.90;;;;;;5089273;28;20721;-72
2023/10/24 09:36:44;;;;;;;5.63;3.77;;;12.30;99.90;;;;;;5088334;28;20672;-72
2023/10/24 09:39:11;;;;;;;4.27;3.20;;;12.30;99.90;;;;;;5084289;28;20631;-72
2023/10/24 09:41:41;;;;;;;4.77;4.37;;;12.30;99.90;;;;;;5089321;28;21149;-72
2023/10/24 09:44:10;;;;;;;4.37;3.70;;;12.40;99.90;;;;;;5096594;28;20777;-72
2023/10/24 09:46:39;;;;;;;4.10;3.80;;;12.40;99.90;;;;;;5099991;28;20628;-72
2023/10/24 09:49:07;;;;;;;4.97;3.93;;;12.40;99.90;;;;;;5090321;28;20723;-70
2023/10/24 09:51:36;;;;;;;4.50;4.10;;;12.50;99.90;;;;;;5090918;28;20648;-70
2023/10/24 09:54:04;;;;;;;5.17;4.13;;;12.50;99.90;;;;;;5087546;28;20621;-70
2023/10/24 09:56:31;;;;;;;6.87;4.17;;;12.50;99.90;;;;;;5089894;28;20657;-70
2023/10/24 09:58:59;;;;;;;4.43;4.03;;;12.50;99.90;;;;;;5093103;28;20632;-70
2023/10/24 10:01:28;;;;;;;5.90;3.80;;;12.50;99.90;;;;;;5087911;28;20982;-70
2023/10/24 10:03:58;;;;;;;5.10;3.80;;;12.50;99.90;;;;;;5088634;28;21181;-70
2023/10/24 10:06:27;;;;;;;6.33;4.13;;;12.50;99.90;;;;;;5088340;28;20629;-70
2023/10/24 10:08:56;;;;;;;4.90;4.50;;;12.60;99.90;;;;;;5087249;28;21174;-70
2023/10/24 10:11:23;;;;;;;5.17;4.77;;;12.60;99.90;;;;;;5082143;28;20633;-70
2023/10/24 10:13:54;;;;;;;3.70;3.40;;;12.60;99.90;;;;;;5087915;28;20645;-70
2023/10/24 10:16:35;;;;;;;4.63;4.23;;;12.60;99.90;;;;;;5089516;28;20679;-70
2023/10/24 10:19:31;;;;;;;4.10;3.80;;;12.60;99.90;;;;;;5092979;28;20629;-70
2023/10/24 10:22:11;;;;;;;3.80;3.50;;;12.60;99.90;;;;;;5086514;28;20760;-70
2023/10/24 10:25:00;;;;;;;4.77;3.93;;;12.60;99.90;;;;;;5089587;28;20629;-70
2023/10/24 10:27:35;;;;;;;4.30;3.90;;;12.70;99.90;;;;;;5089622;28;20624;-70
2023/10/24 10:30:14;;;;;;;4.10;3.80;;;12.70;99.90;;;;;;5087536;28;20663;-70
2023/10/24 10:32:49;;;;;;;4.13;3.83;;;12.70;99.90;;;;;;5088331;28;20985;-70
2023/10/24 10:35:18;;;;;;;3.53;3.10;;;12.80;99.90;;;;;;5084433;28;20676;-70
2023/10/24 10:38:04;;;;;;;3.70;3.33;;;12.80;99.90;;;;;;5093115;28;20621;-69
2023/10/24 10:40:31;;;;;;;3.47;3.17;;;12.80;99.90;;;;;;5084695;28;20624;-69
2023/10/24 10:42:58;;;;;;;3.43;3.07;;;12.80;99.90;;;;;;5086873;28;20636;-69
2023/10/24 10:45:27;;;;;;;6.50;3.40;;;12.90;99.90;;;;;;5091772;28;20975;-70
2023/10/24 10:47:58;;;;;;;3.97;2.73;;;12.90;99.90;;;;;;5093503;28;20636;-69
2023/10/24 10:50:27;;;;;;;3.30;3.00;;;12.90;99.90;;;;;;5093094;28;20613;-70
2023/10/24 10:53:02;;;;;;;4.63;3.30;;;12.90;99.90;;;;;;5086935;28;20625;-70
2023/10/24 10:55:51;;;;;;;3.43;3.13;;;12.90;99.90;;;;;;5088123;28;20679;-71
2023/10/24 10:58:24;;;;;;;3.73;3.20;;;12.90;99.90;;;;;;5084621;28;20621;-71
2023/10/24 11:01:02;;;;;;;2.53;2.30;;;12.90;99.90;;;;;;5086979;28;20644;-71
2023/10/24 11:03:40;;;;;;;3.23;2.43;;;12.90;99.90;;;;;;5085655;28;20625;-71
2023/10/24 11:06:14;;;;;;;1.90;1.80;;;12.90;99.90;;;;;;5088328;28;20633;-71
2023/10/24 11:08:42;;;;;;;2.77;2.30;;;12.90;99.90;;;;;;5088560;28;21262;-71
2023/10/24 11:11:10;;;;;;;4.20;2.67;;;12.90;99.90;;;;;;5087207;28;20624;-71
2023/10/24 11:13:42;;;;;;;1.87;1.77;;;12.90;99.90;;;;;;5087240;28;21031;-72
2023/10/24 11:16:10;;;;;;;2.93;2.73;;;12.90;99.90;;;;;;5090007;28;20672;-72
2023/10/24 11:18:39;;;;;;;4.13;2.70;;;12.90;99.90;;;;;;5088738;28;20702;-72
2023/10/24 11:21:07;;;;;;;4.50;2.37;;;12.90;99.90;;;;;;5087037;28;20706;-72
2023/10/24 11:23:35;;;;;;;2.63;2.43;;;12.90;99.90;;;;;;5087657;28;20613;-72
2023/10/24 11:26:03;;;;;;;2.73;2.37;;;12.90;99.90;;;;;;5086868;28;20629;-72
2023/10/24 11:28:30;;;;;;;1.67;1.57;;;12.90;99.90;;;;;;5086580;28;21192;-72
2023/10/24 11:30:58;;;;;;;2.43;2.00;;;12.90;99.90;;;;;;5092169;28;20729;-72
2023/10/24 11:33:26;;;;;;;2.20;1.83;;;13.00;99.90;;;;;;5091095;28;20621;-72
2023/10/24 11:35:54;;;;;;;2.47;2.20;;;13.00;99.90;;;;;;5087165;28;21280;-72
2023/10/24 11:38:21;;;;;;;2.87;2.43;;;12.90;99.90;;;;;;5086317;28;20633;-72
2023/10/24 11:40:48;;;;;;;3.30;1.90;;;12.90;99.90;;;;;;5086229;28;20640;-71
2023/10/24 11:43:17;;;;;;;3.47;2.30;;;12.90;99.90;;;;;;5086703;28;20631;-72
2023/10/24 11:45:45;;;;;;;1.97;1.87;;;12.90;99.90;;;;;;5083905;28;20658;-72
2023/10/24 11:48:12;;;;;;;3.70;2.27;;;12.90;99.90;;;;;;5080439;28;20733;-72
2023/10/24 11:50:43;;;;;;;2.00;1.63;;;12.90;99.90;;;;;;5088733;28;20631;-72
2023/10/24 11:53:12;;;;;;;2.53;2.33;;;12.90;99.90;;;;;;5086496;28;20621;-72
2023/10/24 11:55:39;;;;;;;2.50;2.30;;;12.90;99.90;;;;;;5083955;28;20903;-72
2023/10/24 11:58:08;;;;;;;2.70;2.33;;;12.90;99.90;;;;;;5089511;28;20624;-72
2023/10/24 12:00:37;;;;;;;2.20;2.00;;;12.80;99.90;;;;;;5086500;28;20664;-72
2023/10/24 12:03:05;;;;;;;2.60;2.37;;;13.00;99.90;;;;;;5085929;28;20621;-72
2023/10/24 12:05:33;;;;;;;3.60;3.20;;;12.90;99.90;;;;;;5101258;28;20623;-72
2023/10/24 12:08:01;;;;;;;3.00;2.47;;;12.90;99.90;;;;;;5086640;28;20630;-72
2023/10/24 12:10:30;;;;;;;2.33;2.17;;;13.10;99.90;;;;;;5087648;28;20635;-72
2023/10/24 12:12:58;;;;;;;2.93;2.73;;;13.00;99.90;;;;;;5089090;28;21267;-72
2023/10/24 12:15:26;;;;;;;3.53;2.20;;;13.00;99.90;;;;;;5087081;28;20625;-71
2023/10/24 12:17:56;;;;;;;4.70;2.80;;;13.00;99.90;;;;;;5084716;28;20756;-72
2023/10/24 12:20:23;;;;;;;2.00;1.80;;;13.00;99.90;;;;;;5089273;28;20624;-72
2023/10/24 12:22:51;;;;;;;2.10;1.93;;;13.00;99.90;;;;;;5091446;28;20629;-72
2023/10/24 12:25:18;;;;;;;2.13;2.00;;;13.00;99.90;;;;;;5092706;28;21160;-72
2023/10/24 12:27:46;;;;;;;2.00;1.90;;;13.10;99.90;;;;;;5082363;28;21533;-72
2023/10/24 12:30:14;;;;;;;3.67;3.30;;;13.10;99.90;;;;;;5089601;28;20616;-72
2023/10/24 12:32:42;;;;;;;2.17;1.97;;;13.10;99.90;;;;;;5092964;28;20618;-71
2023/10/24 12:35:09;;;;;;;3.77;3.40;;;13.10;99.90;;;;;;5085647;28;20625;-72
2023/10/24 12:37:37;;;;;;;2.90;2.70;;;13.10;99.90;;;;;;5085555;28;20672;-72
2023/10/24 12:40:05;;;;;;;2.87;2.10;;;13.10;99.90;;;;;;5086314;28;20988;-72
2023/10/24 12:42:33;;;;;;;3.70;2.43;;;13.10;99.90;;;;;;5085485;28;20621;-72
2023/10/24 12:45:01;;;;;;;2.43;2.23;;;13.20;99.90;;;;;;5087428;28;20636;-72
2023/10/24 12:47:28;;;;;;;2.17;1.60;;;13.20;99.90;;;;;;5099790;28;20620;-72
2023/10/24 12:49:55;;;;;;;2.03;1.90;;;13.20;99.90;;;;;;5089234;28;20631;-72